createdAt,value
2018-07-25T00:00:16.362Z,101174.66
2018-07-25T00:02:45.182Z,101180.11
2018-07-25T00:05:13.946Z,101176.84
2018-07-25T00:07:43.293Z,101176.53
2018-07-25T00:10:12.175Z,101174.81
2018-07-25T00:12:40.946Z,101173.45
2018-07-25T00:15:09.722Z,101172.59
2018-07-25T00:17:38.478Z,101179.75
2018-07-25T00:20:07.315Z,101177.03
2018-07-25T00:22:36.086Z,101175.67
2018-07-25T00:25:04.970Z,101178.05
2018-07-25T00:27:34.239Z,101178.91
2018-07-25T00:30:03.015Z,101175.86
2018-07-25T00:32:31.815Z,101167.34
2018-07-25T00:35:00.696Z,101175.00
2018-07-25T00:37:29.561Z,101165.47
2018-07-25T00:39:58.324Z,101170.92
2018-07-25T00:42:27.278Z,101169.55
2018-07-25T00:44:56.028Z,101173.30
2018-07-25T00:47:24.826Z,101171.93
2018-07-25T00:49:53.619Z,101168.35
2018-07-25T00:52:22.599Z,101169.20
2018-07-25T00:54:51.313Z,101171.61
2018-07-25T00:57:20.065Z,101170.76
2018-07-25T00:59:48.806Z,101173.48
2018-07-25T01:02:17.629Z,101171.61
2018-07-25T01:04:46.408Z,101170.91
2018-07-25T01:07:15.122Z,101167.68
2018-07-25T01:09:44.302Z,101164.95
2018-07-25T01:12:13.040Z,101165.15
2018-07-25T01:14:41.836Z,101170.05
2018-07-25T01:17:10.829Z,101163.25
2018-07-25T01:19:39.618Z,101169.23
2018-07-25T01:22:08.361Z,101174.33
2018-07-25T01:24:37.090Z,101174.33
2018-07-25T01:27:05.920Z,101173.98
2018-07-25T01:29:34.711Z,101173.16
2018-07-25T01:32:03.538Z,101175.34
2018-07-25T01:34:32.294Z,101166.00
2018-07-25T01:37:01.067Z,101172.45
2018-07-25T01:40:00.204Z,101170.59
2018-07-25T01:42:29.120Z,101175.53
2018-07-25T01:44:57.942Z,101171.10
2018-07-25T01:47:27.620Z,101173.00
2018-07-25T01:49:56.382Z,101171.64
2018-07-25T01:52:25.183Z,101171.45
2018-07-25T01:54:53.988Z,101171.10
2018-07-25T01:57:22.774Z,101167.55
2018-07-25T01:59:51.608Z,101173.31
2018-07-25T02:02:20.327Z,101173.31
2018-07-25T02:04:49.080Z,101167.02
2018-07-25T02:07:17.835Z,101172.81
2018-07-25T02:09:46.583Z,101174.17
2018-07-25T02:12:15.342Z,101171.64
2018-07-25T02:14:44.097Z,101177.75
2018-07-25T02:17:12.894Z,101174.36
2018-07-25T02:19:41.901Z,101180.63
2018-07-25T02:22:10.612Z,101180.63
2018-07-25T02:24:39.390Z,101179.81
2018-07-25T02:27:08.292Z,101176.23
2018-07-25T02:29:37.066Z,101174.36
2018-07-25T02:32:05.812Z,101181.17
2018-07-25T02:34:34.596Z,101179.81
2018-07-25T02:37:03.543Z,101183.89
2018-07-25T02:39:32.316Z,101186.63
2018-07-25T02:42:01.094Z,101186.63
2018-07-25T02:44:29.823Z,101186.63
2018-07-25T02:46:58.607Z,101183.04
2018-07-25T02:49:27.401Z,101185.26
2018-07-25T02:51:56.152Z,101184.91
2018-07-25T02:54:24.960Z,101183.55
2018-07-25T02:56:53.793Z,101191.21
2018-07-25T02:59:22.947Z,101194.95
2018-07-25T03:01:51.695Z,101196.16
2018-07-25T03:04:20.446Z,101192.22
2018-07-25T03:06:49.191Z,101198.53
2018-07-25T03:09:17.940Z,101195.80
2018-07-25T03:11:46.721Z,101194.63
2018-07-25T03:14:15.577Z,101199.03
2018-07-25T03:16:44.514Z,101198.53
2018-07-25T03:19:13.349Z,101191.38
2018-07-25T03:21:42.197Z,101195.80
2018-07-25T03:24:11.029Z,101195.80
2018-07-25T03:26:39.939Z,101194.44
2018-07-25T03:29:08.772Z,101199.70
2018-07-25T03:31:37.667Z,101202.78
2018-07-25T03:34:06.427Z,101200.91
2018-07-25T03:36:35.247Z,101198.85
2018-07-25T03:39:04.469Z,101204.66
2018-07-25T03:41:34.185Z,101208.05
2018-07-25T03:44:03.509Z,101209.76
2018-07-25T03:46:32.300Z,101210.93
2018-07-25T03:49:01.042Z,101203.92
2018-07-25T03:51:30.110Z,101199.69
2018-07-25T03:53:59.190Z,101209.89
2018-07-25T03:56:27.916Z,101203.75
2018-07-25T03:58:56.695Z,101208.18
2018-07-25T04:01:25.442Z,101200.33
2018-07-25T04:03:54.208Z,101205.42
2018-07-25T04:06:23.060Z,101207.65
2018-07-25T04:08:51.850Z,101206.95
2018-07-25T04:11:20.604Z,101203.21
2018-07-25T04:13:49.374Z,101209.02
2018-07-25T04:16:18.218Z,101206.09
2018-07-25T04:18:47.951Z,101204.89
2018-07-25T04:21:16.708Z,101201.66
2018-07-25T04:23:45.745Z,101207.78
2018-07-25T04:30:49.701Z,101209.30
2018-07-25T04:33:18.469Z,101215.42
2018-07-25T04:35:47.205Z,101213.55
2018-07-25T04:38:15.932Z,101214.21
2018-07-25T04:40:44.682Z,101216.78
2018-07-25T04:43:13.521Z,101220.68
2018-07-25T04:45:42.294Z,101212.34
2018-07-25T04:48:11.626Z,101213.01
2018-07-25T04:50:40.402Z,101212.34
2018-07-25T04:53:09.897Z,101219.50
2018-07-25T04:55:38.709Z,101216.08
2018-07-25T04:58:08.618Z,101215.89
2018-07-25T05:00:37.401Z,101224.77
2018-07-25T05:03:06.841Z,101220.48
2018-07-25T05:05:35.562Z,101226.61
2018-07-25T05:08:04.317Z,101218.27
2018-07-25T05:10:33.062Z,101220.29
2018-07-25T05:13:01.811Z,101220.10
2018-07-25T05:15:30.570Z,101224.34
2018-07-25T05:17:59.352Z,101218.73
2018-07-25T05:20:28.113Z,101219.91
2018-07-25T05:22:57.212Z,101226.56
2018-07-25T05:25:25.974Z,101223.99
2018-07-25T05:27:54.742Z,101228.23
2018-07-25T05:30:23.475Z,101231.62
2018-07-25T05:32:52.238Z,101227.34
2018-07-25T05:35:21.283Z,101229.91
2018-07-25T05:37:50.030Z,101230.58
2018-07-25T05:40:18.763Z,101235.33
2018-07-25T05:42:47.557Z,101236.34
2018-07-25T05:45:16.372Z,101237.51
2018-07-25T05:47:45.141Z,101243.13
2018-07-25T05:50:13.946Z,101236.99
2018-07-25T05:52:42.782Z,101238.52
2018-07-25T05:55:11.614Z,101239.69
2018-07-25T05:57:40.405Z,101238.98
2018-07-25T06:00:09.240Z,101241.58
2018-07-25T06:02:38.021Z,101245.83
2018-07-25T06:05:06.918Z,101239.32
2018-07-25T06:07:35.740Z,101241.38
2018-07-25T06:10:05.050Z,101241.19
2018-07-25T06:12:35.035Z,101243.72
2018-07-25T06:15:03.855Z,101246.09
2018-07-25T06:17:33.738Z,101245.92
2018-07-25T06:20:02.543Z,101249.83
2018-07-25T06:22:31.260Z,101247.76
2018-07-25T06:25:00.066Z,101252.00
2018-07-25T06:27:28.835Z,101254.88
2018-07-25T06:29:57.617Z,101249.27
2018-07-25T06:32:26.343Z,101252.30
2018-07-25T06:34:55.238Z,101258.77
2018-07-25T06:37:24.025Z,101259.12
2018-07-25T06:39:52.875Z,101257.56
2018-07-25T06:42:21.786Z,101255.52
2018-07-25T06:44:50.526Z,101262.50
2018-07-25T06:47:19.309Z,101258.72
2018-07-25T06:49:48.006Z,101261.59
2018-07-25T06:52:16.854Z,101253.75
2018-07-25T06:54:45.618Z,101254.06
2018-07-25T06:57:14.400Z,101251.52
2018-07-25T06:59:43.213Z,101257.80
2018-07-25T07:02:12.118Z,101263.41
2018-07-25T07:04:40.941Z,101254.70
2018-07-25T07:07:09.728Z,101263.24
2018-07-25T07:09:38.505Z,101255.20
2018-07-25T07:12:07.775Z,101256.87
2018-07-25T07:14:37.582Z,101256.75
2018-07-25T07:17:06.356Z,101262.52
2018-07-25T07:19:35.214Z,101257.91
2018-07-25T07:22:03.952Z,101250.05
2018-07-25T07:24:32.683Z,101252.09
2018-07-25T07:27:01.535Z,101255.17
2018-07-25T07:29:30.309Z,101259.27
2018-07-25T07:32:00.138Z,101253.80
2018-07-25T07:34:28.943Z,101257.70
2018-07-25T07:36:57.904Z,101257.70
2018-07-25T07:52:16.744Z,101261.52
2018-07-25T07:54:47.749Z,101261.52
2018-07-25T07:57:16.510Z,101267.48
2018-07-25T07:59:45.306Z,101266.98
2018-07-25T08:02:14.245Z,101262.34
2018-07-25T08:04:43.030Z,101264.59
2018-07-25T08:07:11.894Z,101271.08
2018-07-25T08:09:40.685Z,101267.33
2018-07-25T08:12:09.898Z,101267.80
2018-07-25T08:14:38.666Z,101272.44
2018-07-25T08:17:07.913Z,101256.05
2018-07-25T08:19:36.690Z,101260.16
2018-07-25T08:22:05.632Z,101257.08
2018-07-25T08:24:34.406Z,101256.56
2018-07-25T08:27:03.207Z,101258.64
2018-07-25T08:29:31.960Z,101251.81
2018-07-25T08:32:00.729Z,101254.55
2018-07-25T08:34:29.535Z,101253.34
2018-07-25T08:36:58.238Z,101262.39
2018-07-25T08:39:26.989Z,101261.53
2018-07-25T08:41:55.785Z,101254.39
2018-07-25T08:44:24.557Z,101261.73
2018-07-25T08:46:53.357Z,101260.02
2018-07-25T08:49:22.176Z,101250.66
2018-07-25T08:51:50.943Z,101248.78
2018-07-25T08:54:19.721Z,101256.44
2018-07-25T08:56:48.569Z,101259.70
2018-07-25T08:59:17.347Z,101259.36
2018-07-25T09:01:46.205Z,101256.63
2018-07-25T09:04:15.066Z,101253.55
2018-07-25T09:06:43.862Z,101248.59
2018-07-25T09:09:12.706Z,101252.39
2018-07-25T09:11:41.487Z,101254.26
2018-07-25T09:14:10.263Z,101256.98
2018-07-25T09:16:39.019Z,101258.86
2018-07-25T09:19:07.868Z,101250.36
2018-07-25T09:21:36.678Z,101250.87
2018-07-25T09:24:05.505Z,101250.52
2018-07-25T09:26:34.321Z,101248.30
2018-07-25T09:29:03.186Z,101250.52
2018-07-25T09:31:31.987Z,101241.67
2018-07-25T09:34:00.763Z,101245.26
2018-07-25T09:36:29.559Z,101249.01
2018-07-25T09:38:58.374Z,101243.55
2018-07-25T09:41:27.134Z,101241.33
2018-07-25T09:43:55.982Z,101242.38
2018-07-25T09:46:24.885Z,101237.94
2018-07-25T09:48:53.756Z,101239.30
2018-07-25T09:51:22.719Z,101239.81
2018-07-25T09:53:51.539Z,101239.50
2018-07-25T09:56:20.381Z,101232.84
2018-07-25T09:58:49.288Z,101232.02
2018-07-25T10:01:18.102Z,101230.30
2018-07-25T10:03:46.947Z,101231.67
2018-07-25T10:06:15.862Z,101227.23
2018-07-25T10:08:44.691Z,101231.02
2018-07-25T10:11:13.602Z,101233.91
2018-07-25T10:13:42.438Z,101230.00
2018-07-25T10:16:11.311Z,101225.91
2018-07-25T10:18:40.175Z,101225.56
2018-07-25T10:21:09.006Z,101228.80
2018-07-25T10:23:37.857Z,101230.36
2018-07-25T10:26:06.833Z,101228.14
2018-07-25T10:28:36.891Z,101231.06
2018-07-25T10:31:05.814Z,101228.84
2018-07-25T10:33:34.766Z,101225.97
2018-07-25T10:36:03.601Z,101225.62
2018-07-25T10:38:32.417Z,101223.09
2018-07-25T10:41:01.252Z,101224.61
2018-07-25T10:43:30.083Z,101220.37
2018-07-25T10:45:58.986Z,101225.00
2018-07-25T10:48:28.030Z,101219.20
2018-07-25T10:50:56.904Z,101221.58
2018-07-25T10:53:25.834Z,101218.54
2018-07-25T10:55:54.717Z,101219.05
2018-07-25T10:58:23.539Z,101218.89
2018-07-25T11:00:52.477Z,101220.26
2018-07-25T11:03:21.384Z,101219.41
2018-07-25T11:05:50.293Z,101221.24
2018-07-25T11:08:19.101Z,101223.97
2018-07-25T11:10:48.059Z,101228.06
2018-07-25T11:13:17.503Z,101220.93
2018-07-25T11:15:46.400Z,101220.08
2018-07-25T11:18:15.281Z,101223.66
2018-07-25T11:20:44.063Z,101219.22
2018-07-25T11:23:13.035Z,101221.44
2018-07-25T11:25:41.768Z,101221.09
2018-07-25T11:28:10.575Z,101221.95
2018-07-25T11:30:39.531Z,101222.14
2018-07-25T11:33:08.438Z,101218.88
2018-07-25T11:35:37.258Z,101215.32
2018-07-25T11:38:06.221Z,101214.97
2018-07-25T11:40:35.060Z,101216.14
2018-07-25T11:43:03.955Z,101217.20
2018-07-25T11:45:32.789Z,101213.10
2018-07-25T11:48:01.602Z,101212.25
2018-07-25T11:50:30.561Z,101214.47
2018-07-25T11:52:59.305Z,101205.08
2018-07-25T11:55:28.181Z,101214.12
2018-07-25T11:57:56.931Z,101211.39
2018-07-25T12:00:25.703Z,101209.71
2018-07-25T12:02:54.457Z,101207.80
2018-07-25T12:05:23.188Z,101202.35
2018-07-25T12:07:51.935Z,101209.71
2018-07-25T12:10:20.746Z,101211.39
2018-07-25T12:12:49.507Z,101212.25
2018-07-25T12:15:18.262Z,101213.27
2018-07-25T12:17:47.023Z,101208.00
2018-07-25T12:20:15.797Z,101208.34
2018-07-25T12:22:44.628Z,101209.17
2018-07-25T12:25:13.474Z,101208.34
2018-07-25T12:27:42.338Z,101208.34
2018-07-25T12:30:11.185Z,101207.49
2018-07-25T12:32:40.017Z,101205.78
2018-07-25T12:35:08.877Z,101210.73
2018-07-25T12:37:37.826Z,101201.69
2018-07-25T12:40:06.664Z,101206.98
2018-07-25T12:42:35.536Z,101206.64
2018-07-25T12:45:04.548Z,101206.64
2018-07-25T12:47:33.434Z,101203.56
2018-07-25T12:50:02.230Z,101201.69
2018-07-25T12:52:31.059Z,101198.96
2018-07-25T12:54:59.855Z,101199.81
2018-07-25T12:57:28.663Z,101201.69
2018-07-25T12:59:57.717Z,101201.69
2018-07-25T13:02:26.588Z,101200.52
2018-07-25T13:04:55.406Z,101191.28
2018-07-25T13:07:24.229Z,101194.02
2018-07-25T13:09:53.041Z,101198.11
2018-07-25T13:12:21.907Z,101189.09
2018-07-25T13:14:50.717Z,101189.92
2018-07-25T13:17:19.556Z,101189.27
2018-07-25T13:19:48.384Z,101185.52
2018-07-25T13:22:17.326Z,101190.46
2018-07-25T13:24:46.254Z,101189.09
2018-07-25T13:27:15.102Z,101180.06
2018-07-25T13:29:44.008Z,101182.78
2018-07-25T13:32:12.842Z,101180.91
2018-07-25T13:34:41.744Z,101175.97
2018-07-25T13:37:10.607Z,101180.56
2018-07-25T13:39:39.446Z,101180.22
2018-07-25T13:42:08.477Z,101177.33
2018-07-25T13:44:37.350Z,101180.56
2018-07-25T13:47:06.388Z,101175.62
2018-07-25T13:49:35.224Z,101172.89
2018-07-25T13:52:04.421Z,101176.98
2018-07-25T13:54:33.205Z,101173.75
2018-07-25T13:57:03.059Z,101180.06
2018-07-25T13:59:32.329Z,101172.89
2018-07-25T14:02:01.200Z,101169.31
2018-07-25T14:04:30.046Z,101170.16
2018-07-25T14:06:58.866Z,101172.89
2018-07-25T14:09:27.696Z,101170.16
2018-07-25T14:11:56.596Z,101165.76
2018-07-25T14:14:25.782Z,101162.48
2018-07-25T14:16:54.633Z,101160.30
2018-07-25T14:19:24.082Z,101150.41
2018-07-25T14:21:52.961Z,101160.30
2018-07-25T14:24:22.124Z,101155.86
2018-07-25T14:26:50.952Z,101161.83
2018-07-25T14:29:19.889Z,101149.55
2018-07-25T14:31:49.061Z,101151.42
2018-07-25T14:34:17.873Z,101156.56
2018-07-25T14:36:46.722Z,101154.86
2018-07-25T14:39:15.692Z,101145.66
2018-07-25T14:41:44.784Z,101141.73
2018-07-25T14:44:13.803Z,101136.81
2018-07-25T14:46:42.685Z,101139.85
2018-07-25T14:49:11.849Z,101144.45
2018-07-25T14:51:40.733Z,101143.95
2018-07-25T14:54:09.729Z,101142.78
2018-07-25T14:56:38.564Z,101147.73
2018-07-25T14:59:07.405Z,101148.23
2018-07-25T15:01:36.408Z,101145.50
2018-07-25T15:04:05.343Z,101156.42
2018-07-25T15:06:34.259Z,101155.56
2018-07-25T15:09:03.335Z,101152.83
2018-07-25T15:11:32.147Z,101147.73
2018-07-25T15:14:01.022Z,101150.95
2018-07-25T15:16:31.106Z,101158.63
2018-07-25T15:18:59.994Z,101152.33
2018-07-25T15:21:28.920Z,101163.89
2018-07-25T15:23:59.900Z,101152.98
2018-07-25T15:26:29.488Z,101148.03
2018-07-25T15:28:59.328Z,101147.88
2018-07-25T15:31:28.256Z,101144.80
2018-07-25T15:33:57.217Z,101142.93
2018-07-25T15:36:45.448Z,101144.61
2018-07-25T15:39:21.320Z,101147.34
2018-07-25T15:41:51.003Z,101145.97
2018-07-25T15:44:20.934Z,101145.14
2018-07-25T15:46:49.922Z,101154.16
2018-07-25T15:49:18.970Z,101152.28
2018-07-25T15:51:48.067Z,101144.09
2018-07-25T15:54:16.969Z,101146.83
2018-07-25T15:56:45.938Z,101149.39
2018-07-25T15:59:14.885Z,101152.12
2018-07-25T16:01:43.838Z,101153.48
2018-07-25T16:04:12.807Z,101150.75
2018-07-25T16:06:41.743Z,101160.30
2018-07-25T16:09:12.005Z,101157.89
2018-07-25T16:11:41.446Z,101165.22
2018-07-25T16:14:10.391Z,101162.48
2018-07-25T16:16:39.522Z,101161.12
2018-07-25T16:19:08.686Z,101165.56
2018-07-25T16:21:37.611Z,101169.14
2018-07-25T16:24:06.615Z,101174.60
2018-07-25T16:26:35.445Z,101174.41
2018-07-25T16:29:04.949Z,101173.55
2018-07-25T16:31:34.324Z,101176.28
2018-07-25T16:34:04.341Z,101178.34
2018-07-25T16:36:33.217Z,101178.34
2018-07-25T16:39:02.075Z,101181.38
2018-07-25T16:41:31.015Z,101185.31
2018-07-25T16:43:59.897Z,101183.41
2018-07-25T16:46:28.825Z,101177.63
2018-07-25T16:48:57.705Z,101185.63
2018-07-25T16:51:26.658Z,101186.48
2018-07-25T16:53:55.609Z,101192.28
2018-07-25T16:56:24.568Z,101190.92
2018-07-25T16:58:53.468Z,101185.46
2018-07-25T17:01:22.371Z,101194.50
2018-07-25T17:03:51.584Z,101198.05
2018-07-25T17:06:20.532Z,101196.69
2018-07-25T17:08:49.500Z,101195.33
2018-07-25T17:11:18.582Z,101191.23
2018-07-25T17:13:47.453Z,101194.50
2018-07-25T17:16:16.413Z,101189.87
2018-07-25T17:18:45.241Z,101192.28
2018-07-25T17:21:14.193Z,101199.95
2018-07-25T17:23:43.158Z,101193.14
2018-07-25T17:26:12.029Z,101194.34
2018-07-25T17:28:40.906Z,101198.44
2018-07-25T17:31:09.817Z,101196.21
2018-07-25T17:33:38.832Z,101208.49
2018-07-25T17:36:08.374Z,101204.88
2018-07-25T17:38:37.249Z,101204.05
2018-07-25T17:41:06.209Z,101207.13
2018-07-25T17:43:35.059Z,101208.97
2018-07-25T17:46:04.005Z,101205.77
2018-07-25T17:48:32.928Z,101209.86
2018-07-25T17:51:02.116Z,101201.83
2018-07-25T17:53:31.226Z,101208.66
2018-07-25T17:56:00.194Z,101208.66
2018-07-25T17:58:29.120Z,101204.56
2018-07-25T18:00:58.035Z,101207.80
2018-07-25T18:03:27.055Z,101209.67
2018-07-25T18:06:00.056Z,101213.25
2018-07-25T18:08:29.106Z,101215.12
2018-07-25T18:10:58.101Z,101217.00
2018-07-25T18:13:32.004Z,101218.36
2018-07-25T18:16:00.967Z,101217.86
2018-07-25T18:18:29.876Z,101224.33
2018-07-25T18:20:59.254Z,101221.09
2018-07-25T18:23:28.117Z,101219.41
2018-07-25T18:25:57.031Z,101217.20
2018-07-25T18:28:26.044Z,101225.69
2018-07-25T18:30:54.975Z,101227.60
2018-07-25T18:33:23.837Z,101225.38
2018-07-25T18:35:52.757Z,101233.05
2018-07-25T18:38:21.748Z,101234.58
2018-07-25T18:40:50.661Z,101234.58
2018-07-25T18:43:19.522Z,101234.27
2018-07-25T18:45:48.368Z,101242.10
2018-07-25T18:48:17.545Z,101236.64
2018-07-25T18:50:46.509Z,101236.64
2018-07-25T18:53:15.371Z,101235.48
2018-07-25T18:55:44.286Z,101243.13
2018-07-25T18:58:13.227Z,101240.59
2018-07-25T19:00:44.567Z,101238.36
2018-07-25T19:03:14.076Z,101242.97
2018-07-25T19:05:42.894Z,101238.05
2018-07-25T19:08:11.781Z,101248.62
2018-07-25T19:10:40.639Z,101253.22
2018-07-25T19:13:14.662Z,101252.91
2018-07-25T19:15:43.580Z,101254.27
2018-07-25T19:18:12.455Z,101253.92
2018-07-25T19:20:41.364Z,101256.84
2018-07-25T19:23:10.290Z,101251.38
2018-07-25T19:25:39.814Z,101254.61
2018-07-25T19:28:08.743Z,101263.30
2018-07-25T19:30:37.599Z,101262.96
2018-07-25T19:33:06.470Z,101262.10
2018-07-25T19:35:35.340Z,101269.97
2018-07-25T19:38:04.237Z,101271.33
2018-07-25T19:40:33.089Z,101270.98
2018-07-25T19:43:01.998Z,101271.18
2018-07-25T19:45:30.826Z,101279.67
2018-07-25T19:47:59.778Z,101274.77
2018-07-25T19:50:28.681Z,101276.95
2018-07-25T19:52:57.602Z,101275.59
2018-07-25T19:55:26.512Z,101281.04
2018-07-25T19:57:55.584Z,101287.35
2018-07-25T20:00:24.561Z,101291.13
2018-07-25T20:02:53.521Z,101285.32
2018-07-25T20:05:22.397Z,101291.95
2018-07-25T20:07:51.208Z,101291.13
2018-07-25T20:10:20.052Z,101293.00
2018-07-25T20:12:48.995Z,101297.95
2018-07-25T20:15:22.933Z,101295.22
2018-07-25T20:17:51.814Z,101293.00
2018-07-25T20:20:21.695Z,101291.13
2018-07-25T20:22:50.690Z,101293.00
2018-07-25T20:25:19.632Z,101288.05
2018-07-25T20:27:48.569Z,101296.23
2018-07-25T20:30:17.418Z,101288.05
2018-07-25T20:32:46.405Z,101297.09
2018-07-25T20:35:15.311Z,101294.87
2018-07-25T20:37:44.152Z,101299.82
2018-07-25T20:40:13.010Z,101298.11
2018-07-25T20:42:41.991Z,101280.60
2018-07-25T20:45:10.854Z,101304.41
2018-07-25T20:47:39.896Z,101302.20
2018-07-25T20:50:08.820Z,101299.98
2018-07-25T20:52:37.683Z,101304.06
2018-07-25T20:55:06.601Z,101305.97
2018-07-25T20:57:35.573Z,101310.06
2018-07-25T21:00:04.973Z,101307.84
2018-07-25T21:02:33.920Z,101315.52
2018-07-25T21:05:02.838Z,101313.30
2018-07-25T21:07:31.714Z,101318.75
2018-07-25T21:10:00.649Z,101316.88
2018-07-25T21:12:29.534Z,101331.03
2018-07-25T21:14:58.571Z,101329.31
2018-07-25T21:17:27.503Z,101330.52
2018-07-25T21:19:56.302Z,101332.58
2018-07-25T21:22:25.144Z,101332.06
2018-07-25T21:24:54.130Z,101333.27
2018-07-25T21:27:22.938Z,101338.05
2018-07-25T21:29:51.794Z,101336.19
2018-07-25T21:32:20.654Z,101340.97
2018-07-25T21:34:49.533Z,101337.58
2018-07-25T21:37:18.638Z,101344.23
2018-07-25T21:39:47.489Z,101342.20
2018-07-25T21:42:16.345Z,101340.28
2018-07-25T21:44:45.221Z,101342.34
2018-07-25T21:47:14.150Z,101343.03
2018-07-25T21:49:43.006Z,101350.00
2018-07-25T21:52:11.838Z,101353.61
2018-07-25T21:54:40.752Z,101350.19
2018-07-25T21:57:09.601Z,101363.14
2018-07-25T21:59:38.404Z,101359.39
2018-07-25T22:02:07.312Z,101360.94
2018-07-25T22:04:36.147Z,101358.56
2018-07-25T22:07:05.514Z,101360.11
2018-07-25T22:09:34.401Z,101364.00
2018-07-25T22:12:03.253Z,101367.92
2018-07-25T22:14:32.037Z,101369.11
2018-07-25T22:17:00.821Z,101363.17
2018-07-25T22:19:33.120Z,101367.09
2018-07-25T22:22:02.298Z,101370.84
2018-07-25T22:24:31.121Z,101380.37
2018-07-25T22:27:00.693Z,101375.09
2018-07-25T22:29:29.608Z,101376.24
2018-07-25T22:31:58.546Z,101374.39
2018-07-25T22:34:27.398Z,101373.70
2018-07-25T22:36:56.309Z,101381.34
2018-07-25T22:39:25.415Z,101384.23
2018-07-25T22:41:54.246Z,101388.83
2018-07-25T22:44:23.053Z,101391.05
2018-07-25T22:46:51.831Z,101386.80
2018-07-25T22:49:20.689Z,101381.83
2018-07-25T22:51:49.575Z,101381.48
2018-07-25T22:54:18.647Z,101375.69
2018-07-25T22:56:47.487Z,101367.17
2018-07-25T22:59:16.297Z,101376.02
2018-07-25T23:01:45.172Z,101374.98
2018-07-25T23:04:14.002Z,101372.74
2018-07-25T23:06:42.835Z,101373.92
2018-07-25T23:09:12.406Z,101376.12
2018-07-25T23:11:41.747Z,101382.39
2018-07-25T23:14:10.700Z,101374.73
2018-07-25T23:16:39.520Z,101370.14
2018-07-25T23:19:08.314Z,101369.94
2018-07-25T23:21:37.090Z,101372.66
2018-07-25T23:24:05.910Z,101371.62
2018-07-25T23:26:34.787Z,101375.52
2018-07-25T23:29:03.652Z,101373.98
2018-07-25T23:31:32.480Z,101374.30
2018-07-25T23:34:01.389Z,101375.98
2018-07-25T23:36:30.170Z,101377.34
2018-07-25T23:38:59.024Z,101380.38
2018-07-25T23:41:27.901Z,101386.14
2018-07-25T23:43:56.734Z,101379.63
2018-07-25T23:46:25.600Z,101384.56
2018-07-25T23:48:54.457Z,101382.52
2018-07-25T23:51:23.233Z,101382.98
2018-07-25T23:53:52.024Z,101375.17
2018-07-25T23:56:20.803Z,101374.13
2018-07-25T23:58:49.550Z,101379.39
